Time;durP1;ratioP1;P1;durP2;ratioP2;P2;SDS_P1;SDS_P2;PMS_P1;PMS_P2;Temp;Humidity;BMP_temperature;BMP_pressure;BME280_temperature;BME280_humidity;BME280_pressure;Samples;Min_cycle;Max_cycle;Signal;HPM_P1;HPM_P2
2021/10/06 00:01:14;;;;;;;;;;;18.30;71.50;;;;;;5096058;28;20308;-70
2021/10/06 00:03:41;;;;;;;;;;;18.20;70.80;;;;;;5113838;28;19927;-71
2021/10/06 00:06:07;;;;;;;;;;;18.30;70.60;;;;;;5114577;28;19914;-71
2021/10/06 00:08:34;;;;;;;;;;;18.50;70.80;;;;;;5113611;28;19908;-70
2021/10/06 00:11:01;;;;;;;;;;;18.60;70.40;;;;;;5111512;28;19912;-70
2021/10/06 00:13:27;;;;;;;;;;;18.60;70.30;;;;;;5113872;28;19912;-68
2021/10/06 00:15:54;;;;;;;;;;;18.50;70.10;;;;;;5113419;28;20102;-67
2021/10/06 00:18:22;;;;;;;;;;;18.50;69.20;;;;;;5113647;28;20392;-71
2021/10/06 00:20:49;;;;;;;;;;;18.50;69.50;;;;;;5113012;28;19912;-67
2021/10/06 00:23:16;;;;;;;;;;;18.70;68.10;;;;;;5095222;28;19994;-68
2021/10/06 00:25:43;;;;;;;;;;;18.80;69.00;;;;;;5112098;28;19922;-68
2021/10/06 00:28:09;;;;;;;;;;;18.90;68.90;;;;;;5112526;28;20366;-68
2021/10/06 00:30:36;;;;;;;;;;;18.80;68.30;;;;;;5108203;28;20282;-68
2021/10/06 00:33:02;;;;;;;;;;;18.80;69.60;;;;;;5113274;28;19977;-68
2021/10/06 00:35:29;;;;;;;;;;;18.90;69.00;;;;;;5113181;28;19912;-69
2021/10/06 00:37:56;;;;;;;;;;;19.10;67.60;;;;;;5113422;28;19907;-71
2021/10/06 00:40:22;;;;;;;;;;;18.90;67.30;;;;;;5113368;28;19911;-71
2021/10/06 00:42:49;;;;;;;;;;;19.10;67.20;;;;;;5113044;28;19918;-71
2021/10/06 00:45:16;;;;;;;;;;;19.60;65.20;;;;;;5111562;28;19969;-72
2021/10/06 00:47:42;;;;;;;;;;;19.80;64.20;;;;;;5113091;28;20186;-72
2021/10/06 00:50:09;;;;;;;;;;;19.90;63.90;;;;;;5112475;28;19916;-71
2021/10/06 00:52:36;;;;;;;;;;;19.90;62.60;;;;;;5113057;28;19908;-71
2021/10/06 00:55:03;;;;;;;;;;;20.00;63.10;;;;;;5095027;28;19986;-71
2021/10/06 00:57:29;;;;;;;;;;;20.20;63.20;;;;;;5112708;28;20026;-70
2021/10/06 00:59:56;;;;;;;;;;;20.80;63.20;;;;;;5110450;28;20346;-70
2021/10/06 01:02:23;;;;;;;;;;;20.80;63.60;;;;;;5112550;28;19916;-68
2021/10/06 01:04:50;;;;;;;;;;;21.40;62.50;;;;;;5112658;28;19915;-69
2021/10/06 01:07:18;;;;;;;;;;;21.30;61.30;;;;;;5112678;28;19914;-70
2021/10/06 01:09:44;;;;;;;;;;;21.30;61.20;;;;;;5112383;28;19908;-70
2021/10/06 01:12:11;;;;;;;;;;;21.70;60.00;;;;;;5112633;28;20286;-68
2021/10/06 01:14:38;;;;;;;;;;;22.00;61.00;;;;;;5111666;28;20285;-69
2021/10/06 01:17:05;;;;;;;;;;;22.20;60.00;;;;;;5113004;28;19914;-69
2021/10/06 01:19:32;;;;;;;;;;;22.00;58.60;;;;;;5112038;28;19972;-70
2021/10/06 01:21:59;;;;;;;;;;;22.20;59.00;;;;;;5111787;28;19916;-70
2021/10/06 01:24:26;;;;;;;;;;;22.60;59.20;;;;;;5112681;28;20045;-70
2021/10/06 01:26:53;;;;;;;;;;;22.20;58.30;;;;;;5112428;28;20391;-68
2021/10/06 01:29:20;;;;;;;;;;;22.20;58.50;;;;;;5110342;28;19915;-69
2021/10/06 01:31:47;;;;;;;;;;;22.10;56.70;;;;;;5112643;28;19977;-69
2021/10/06 01:34:16;;;;;;;;;;;21.80;59.40;;;;;;5112209;28;19908;-71
2021/10/06 01:36:42;;;;;;;;;;;21.50;59.90;;;;;;5094108;28;20132;-68
2021/10/06 01:39:09;;;;;;;;;;;21.20;59.30;;;;;;5113637;28;19908;-70
2021/10/06 01:41:36;;;;;;;;;;;21.10;59.70;;;;;;5116275;28;19912;-71
2021/10/06 01:44:03;;;;;;;;;;;21.00;60.40;;;;;;5114907;28;19927;-71
2021/10/06 01:46:30;;;;;;;;;;;21.00;59.90;;;;;;5116560;28;20284;-71
2021/10/06 01:48:57;;;;;;;;;;;21.00;60.50;;;;;;5115933;28;20357;-69
2021/10/06 01:51:26;;;;;;;;;;;21.10;58.60;;;;;;5115948;28;20370;-71
2021/10/06 01:53:53;;;;;;;;;;;21.10;58.80;;;;;;5115950;28;20006;-70
2021/10/06 01:56:19;;;;;;;;;;;21.00;59.70;;;;;;5116632;28;19965;-72
2021/10/06 01:58:47;;;;;;;;;;;20.90;59.60;;;;;;5114063;28;19916;-71
2021/10/06 02:01:14;;;;;;;;;;;21.00;59.10;;;;;;5116240;28;19918;-71
2021/10/06 02:03:40;;;;;;;;;;;21.20;59.30;;;;;;5115929;28;19958;-69
2021/10/06 02:06:07;;;;;;;;;;;21.20;58.80;;;;;;5116176;28;19914;-70
2021/10/06 02:08:34;;;;;;;;;;;21.20;58.20;;;;;;5116095;28;20363;-68
2021/10/06 02:11:01;;;;;;;;;;;21.20;59.10;;;;;;5116216;28;19991;-68
2021/10/06 02:13:28;;;;;;;;;;;21.30;58.50;;;;;;5113882;28;19916;-71
2021/10/06 02:15:54;;;;;;;;;;;21.40;56.60;;;;;;5115803;28;19907;-68
2021/10/06 02:18:21;;;;;;;;;;;21.40;56.20;;;;;;5115941;28;19912;-71
2021/10/06 02:20:48;;;;;;;;;;;21.50;55.50;;;;;;5116064;28;19935;-69
2021/10/06 02:23:15;;;;;;;;;;;21.40;56.90;;;;;;5115786;28;19973;-70
2021/10/06 02:25:42;;;;;;;;;;;21.30;56.30;;;;;;5115926;28;19939;-68
2021/10/06 02:28:08;;;;;;;;;;;21.20;57.70;;;;;;5114477;28;20371;-72
2021/10/06 02:30:36;;;;;;;;;;;21.20;57.50;;;;;;5116116;28;19914;-69
2021/10/06 02:33:03;;;;;;;;;;;21.20;57.20;;;;;;5115767;28;19908;-69
2021/10/06 02:35:30;;;;;;;;;;;21.20;56.50;;;;;;5111225;28;19916;-69
2021/10/06 02:37:56;;;;;;;;;;;21.20;56.10;;;;;;5115956;28;19915;-71
2021/10/06 02:40:23;;;;;;;;;;;21.40;60.50;;;;;;5115415;28;20354;-69
2021/10/06 02:42:50;;;;;;;;;;;21.30;63.80;;;;;;5116143;28;19916;-70
2021/10/06 02:45:18;;;;;;;;;;;21.40;65.20;;;;;;5115750;28;19908;-69
2021/10/06 02:47:46;;;;;;;;;;;21.40;63.50;;;;;;5115886;28;20429;-70
2021/10/06 02:50:14;;;;;;;;;;;21.30;65.30;;;;;;5113434;28;19907;-68
2021/10/06 02:52:41;;;;;;;;;;;21.50;65.20;;;;;;5115601;28;19912;-68
2021/10/06 02:55:08;;;;;;;;;;;21.50;64.80;;;;;;5108559;28;20336;-68
2021/10/06 02:57:36;;;;;;;;;;;21.40;64.80;;;;;;5094908;28;19912;-68
2021/10/06 03:00:04;;;;;;;;;;;21.40;65.20;;;;;;5095066;28;19918;-70
2021/10/06 03:02:31;;;;;;;;;;;21.30;64.60;;;;;;5094995;28;19975;-70
2021/10/06 03:04:58;;;;;;;;;;;21.30;65.20;;;;;;5076824;28;19920;-69
2021/10/06 03:07:25;;;;;;;;;;;21.30;63.90;;;;;;5093902;28;19915;-67
2021/10/06 03:09:51;;;;;;;;;;;21.40;63.60;;;;;;5097354;28;20369;-68
2021/10/06 03:12:18;;;;;;;;;;;21.30;64.40;;;;;;5115142;28;20347;-67
2021/10/06 03:14:45;;;;;;;;;;;21.30;65.60;;;;;;5114585;28;20361;-67
2021/10/06 03:17:11;;;;;;;;;;;21.30;64.00;;;;;;5114827;28;19953;-68
2021/10/06 03:19:38;;;;;;;;;;;21.30;63.50;;;;;;5114092;28;19914;-69
2021/10/06 03:22:05;;;;;;;;;;;21.30;64.10;;;;;;5109420;28;19959;-68
2021/10/06 03:24:31;;;;;;;;;;;21.30;62.70;;;;;;5114754;28;20350;-68
2021/10/06 03:26:58;;;;;;;;;;;21.20;62.70;;;;;;5114772;28;20324;-67
2021/10/06 03:29:25;;;;;;;;;;;21.20;65.00;;;;;;5114423;28;19907;-66
2021/10/06 03:31:52;;;;;;;;;;;21.20;63.30;;;;;;5114283;28;19907;-70
2021/10/06 03:34:18;;;;;;;;;;;21.10;66.40;;;;;;5114272;28;20371;-67
2021/10/06 03:36:45;;;;;;;;;;;21.10;65.60;;;;;;5113043;28;19973;-66
2021/10/06 03:39:11;;;;;;;;;;;21.10;66.60;;;;;;5114174;28;19907;-67
2021/10/06 03:41:38;;;;;;;;;;;20.90;67.20;;;;;;5114326;28;19909;-68
2021/10/06 03:44:05;;;;;;;;;;;20.90;67.40;;;;;;5114484;28;19923;-68
2021/10/06 03:46:31;;;;;;;;;;;20.90;66.00;;;;;;5096093;28;19908;-68
2021/10/06 03:48:58;;;;;;;;;;;21.00;67.30;;;;;;5113801;28;19908;-69
2021/10/06 03:51:25;;;;;;;;;;;21.10;68.00;;;;;;5111486;28;19916;-69
2021/10/06 03:53:52;;;;;;;;;;;21.10;66.80;;;;;;5095616;28;19912;-68
2021/10/06 03:56:18;;;;;;;;;;;21.00;66.00;;;;;;5113969;28;19908;-70
2021/10/06 03:58:45;;;;;;;;;;;20.90;66.20;;;;;;5113653;28;20419;-70
2021/10/06 04:01:12;;;;;;;;;;;20.90;67.40;;;;;;5113836;28;19908;-67
2021/10/06 04:03:38;;;;;;;;;;;20.90;67.30;;;;;;5112258;28;19916;-69
2021/10/06 04:06:05;;;;;;;;;;;20.70;68.80;;;;;;5094544;28;20292;-71
2021/10/06 04:08:32;;;;;;;;;;;20.70;69.40;;;;;;5114002;28;19914;-70
2021/10/06 04:10:59;;;;;;;;;;;20.70;69.20;;;;;;5113744;28;19908;-71
2021/10/06 04:13:25;;;;;;;;;;;20.70;68.80;;;;;;5095281;28;19908;-70
2021/10/06 04:15:52;;;;;;;;;;;20.60;67.20;;;;;;5113593;28;19971;-70
2021/10/06 04:18:18;;;;;;;;;;;20.50;66.80;;;;;;5113604;28;19943;-70
2021/10/06 04:20:45;;;;;;;;;;;20.50;68.00;;;;;;5111097;28;19916;-71
2021/10/06 04:23:12;;;;;;;;;;;20.40;68.60;;;;;;5113180;28;19927;-71
2021/10/06 04:25:39;;;;;;;;;;;20.40;67.60;;;;;;5113531;28;19911;-71
2021/10/06 04:28:05;;;;;;;;;;;20.40;68.70;;;;;;5112545;28;19908;-70
2021/10/06 04:30:32;;;;;;;;;;;20.50;67.80;;;;;;5113441;28;20393;-71
2021/10/06 04:32:59;;;;;;;;;;;20.40;67.70;;;;;;5113188;28;19908;-71
2021/10/06 04:35:25;;;;;;;;;;;20.40;68.20;;;;;;5111660;28;19911;-71
2021/10/06 04:37:52;;;;;;;;;;;20.40;68.30;;;;;;5094977;28;20002;-71
2021/10/06 04:40:19;;;;;;;;;;;20.50;69.50;;;;;;5112659;28;20285;-69
2021/10/06 04:42:46;;;;;;;;;;;20.50;69.30;;;;;;5103507;28;19916;-70
2021/10/06 04:45:13;;;;;;;;;;;20.40;71.00;;;;;;5092244;28;20255;-68
2021/10/06 04:47:40;;;;;;;;;;;20.30;71.80;;;;;;5092122;28;19908;-71
2021/10/06 04:50:07;;;;;;;;;;;20.30;72.20;;;;;;5099945;28;19908;-70
2021/10/06 04:52:34;;;;;;;;;;;20.40;72.30;;;;;;5113188;28;19912;-71
2021/10/06 04:55:01;;;;;;;;;;;20.40;72.20;;;;;;5113245;28;19961;-69
2021/10/06 04:57:27;;;;;;;;;;;20.40;72.80;;;;;;5112512;28;20386;-71
2021/10/06 04:59:54;;;;;;;;;;;20.40;70.50;;;;;;5112737;28;19908;-71
2021/10/06 05:02:20;;;;;;;;;;;20.30;69.20;;;;;;5112836;28;19918;-70
2021/10/06 05:04:47;;;;;;;;;;;20.40;64.70;;;;;;5112935;28;19983;-68
2021/10/06 05:07:14;;;;;;;;;;;20.40;64.10;;;;;;5112360;28;20390;-68
2021/10/06 05:09:40;;;;;;;;;;;20.40;63.00;;;;;;5094142;28;19951;-68
2021/10/06 05:12:07;;;;;;;;;;;20.40;64.10;;;;;;5112959;28;19918;-68
2021/10/06 05:14:34;;;;;;;;;;;20.30;62.90;;;;;;5112380;28;19937;-68
2021/10/06 05:17:02;;;;;;;;;;;20.40;65.90;;;;;;5112039;28;19963;-68
2021/10/06 05:19:28;;;;;;;;;;;20.40;64.60;;;;;;5111904;28;20003;-69
2021/10/06 05:21:55;;;;;;;;;;;20.30;63.40;;;;;;5091865;28;19960;-68
2021/10/06 05:24:25;;;;;;;;;;;20.30;64.40;;;;;;5111812;28;20202;-69
2021/10/06 05:26:52;;;;;;;;;;;20.30;63.90;;;;;;5112673;28;19965;-68
2021/10/06 05:29:21;;;;;;;;;;;20.30;64.10;;;;;;5111930;28;19953;-68
2021/10/06 05:31:48;;;;;;;;;;;20.40;65.10;;;;;;5112535;28;20422;-68
2021/10/06 05:34:14;;;;;;;;;;;20.40;64.80;;;;;;5112614;28;19930;-69
2021/10/06 05:36:41;;;;;;;;;;;20.30;66.80;;;;;;5112701;28;19908;-67
2021/10/06 05:39:08;;;;;;;;;;;20.30;66.40;;;;;;5111807;28;19958;-71
2021/10/06 05:41:35;;;;;;;;;;;20.30;66.20;;;;;;5112043;28;19990;-71
2021/10/06 05:44:01;;;;;;;;;;;20.40;65.40;;;;;;5098803;28;19946;-68
2021/10/06 05:46:28;;;;;;;;;;;20.30;65.40;;;;;;5091980;28;19909;-72
2021/10/06 05:48:55;;;;;;;;;;;20.10;66.40;;;;;;5091224;28;20286;-68
2021/10/06 05:51:21;;;;;;;;;;;20.10;66.40;;;;;;5089734;28;19912;-68
2021/10/06 05:53:48;;;;;;;;;;;20.10;67.10;;;;;;5089866;28;19912;-68
2021/10/06 05:56:15;;;;;;;;;;;20.10;67.90;;;;;;5090304;28;19955;-68
2021/10/06 05:58:41;;;;;;;;;;;20.00;68.80;;;;;;5089238;28;19908;-70
2021/10/06 06:01:08;;;;;;;;;;;20.00;70.50;;;;;;5090158;28;19908;-68
2021/10/06 06:03:35;;;;;;;;;;;19.80;70.00;;;;;;5090216;28;19943;-69
2021/10/06 06:06:01;;;;;;;;;;;19.80;70.20;;;;;;5090435;28;19908;-70
2021/10/06 06:08:28;;;;;;;;;;;19.80;70.50;;;;;;5090579;28;20290;-68
2021/10/06 06:10:55;;;;;;;;;;;19.80;70.70;;;;;;5090372;28;20394;-70
2021/10/06 06:13:21;;;;;;;;;;;19.80;70.10;;;;;;5090178;28;19912;-69
2021/10/06 06:15:52;;;;;;;;;;;19.80;69.20;;;;;;5089926;28;20377;-73
2021/10/06 06:18:18;;;;;;;;;;;19.70;69.40;;;;;;5089797;28;19912;-70
2021/10/06 06:20:45;;;;;;;;;;;19.70;67.90;;;;;;5089654;28;20072;-70
2021/10/06 06:23:12;;;;;;;;;;;19.70;66.90;;;;;;5082275;28;20346;-71
2021/10/06 06:25:39;;;;;;;;;;;19.70;67.00;;;;;;5070823;28;19921;-69
2021/10/06 06:28:06;;;;;;;;;;;19.70;66.60;;;;;;5073927;28;19962;-70
2021/10/06 06:30:33;;;;;;;;;;;19.70;68.20;;;;;;5074061;28;19918;-68
2021/10/06 06:33:00;;;;;;;;;;;19.70;68.20;;;;;;5074091;28;19908;-70
2021/10/06 06:35:26;;;;;;;;;;;19.80;68.20;;;;;;5073975;28;20282;-70
2021/10/06 06:37:53;;;;;;;;;;;19.70;68.60;;;;;;5055213;28;19913;-70
2021/10/06 06:40:20;;;;;;;;;;;19.60;69.70;;;;;;5072521;28;19970;-70
2021/10/06 06:42:46;;;;;;;;;;;19.60;70.60;;;;;;5072637;28;19924;-70
2021/10/06 06:45:13;;;;;;;;;;;19.50;72.10;;;;;;5072890;28;19916;-69
2021/10/06 06:47:41;;;;;;;;;;;19.50;72.40;;;;;;5072542;28;20367;-69
2021/10/06 06:50:08;;;;;;;;;;;19.50;73.30;;;;;;5054188;28;19916;-69
2021/10/06 06:52:35;;;;;;;;;;;19.40;75.10;;;;;;5072982;28;20425;-68
2021/10/06 06:55:02;;;;;;;;;;;19.30;76.30;;;;;;5074817;28;19912;-69
2021/10/06 06:57:29;;;;;;;;;;;19.30;76.90;;;;;;5092599;28;19919;-70
2021/10/06 06:59:55;;;;;;;;;;;19.20;77.20;;;;;;5092880;28;20361;-70
2021/10/06 07:02:22;;;;;;;;;;;19.10;78.00;;;;;;5093061;28;19912;-70
2021/10/06 07:04:49;;;;;;;;;;;19.10;78.10;;;;;;5093091;28;19916;-69
2021/10/06 07:07:16;;;;;;;;;;;19.00;77.60;;;;;;5092926;28;20021;-71
2021/10/06 07:09:49;;;;;;;;;;;19.00;77.80;;;;;;5091967;28;19954;-69
2021/10/06 07:12:16;;;;;;;;;;;18.90;77.90;;;;;;5092862;28;19977;-71
2021/10/06 07:14:43;;;;;;;;;;;18.80;78.00;;;;;;5092770;28;19968;-69
2021/10/06 07:17:10;;;;;;;;;;;18.80;76.40;;;;;;5092300;28;19958;-68
2021/10/06 07:19:37;;;;;;;;;;;18.80;76.30;;;;;;5091957;28;19908;-71
2021/10/06 07:22:04;;;;;;;;;;;18.80;77.50;;;;;;5092027;28;20390;-69
2021/10/06 07:24:30;;;;;;;;;;;18.80;78.20;;;;;;5091915;28;20430;-69
2021/10/06 07:26:57;;;;;;;;;;;18.70;79.50;;;;;;5087783;28;19909;-70
2021/10/06 07:29:24;;;;;;;;;;;18.70;80.90;;;;;;5071758;28;19908;-69
2021/10/06 07:31:51;;;;;;;;;;;18.60;81.80;;;;;;5071657;28;20023;-71
2021/10/06 07:34:18;;;;;;;;;;;18.60;81.90;;;;;;5071954;28;20391;-70
2021/10/06 07:36:44;;;;;;;;;;;18.60;83.10;;;;;;5071395;28;19956;-71
2021/10/06 07:39:11;;;;;;;;;;;18.50;83.40;;;;;;5071388;28;20291;-71
2021/10/06 07:41:38;;;;;;;;;;;18.50;83.30;;;;;;5071428;28;19919;-70
2021/10/06 07:44:05;;;;;;;;;;;18.50;83.90;;;;;;5071654;28;19920;-70
2021/10/06 07:46:31;;;;;;;;;;;18.40;83.50;;;;;;5071961;28;20643;-70
2021/10/06 07:48:58;;;;;;;;;;;18.30;84.20;;;;;;5071040;28;19908;-70
2021/10/06 07:51:25;;;;;;;;;;;18.30;84.40;;;;;;5071306;28;19908;-70
2021/10/06 07:53:51;;;;;;;;;;;18.30;84.90;;;;;;5071528;28;20371;-70
2021/10/06 07:56:18;;;;;;;;;;;18.20;85.00;;;;;;5071468;28;19908;-71
2021/10/06 07:58:45;;;;;;;;;;;18.20;83.80;;;;;;5070946;28;19912;-71
2021/10/06 08:01:12;;;;;;;;;;;18.20;84.00;;;;;;5071257;28;19910;-70
2021/10/06 08:03:38;;;;;;;;;;;18.20;83.50;;;;;;5070635;28;19967;-70
2021/10/06 08:06:05;;;;;;;;;;;18.10;83.50;;;;;;5072630;28;20318;-70
2021/10/06 08:08:32;;;;;;;;;;;18.10;84.00;;;;;;5055501;28;20264;-70
2021/10/06 08:10:59;;;;;;;;;;;18.00;84.40;;;;;;5073397;28;19917;-70
2021/10/06 08:13:26;;;;;;;;;;;18.00;85.10;;;;;;5073150;28;19916;-70
2021/10/06 08:15:53;;;;;;;;;;;18.00;85.40;;;;;;5073176;28;19916;-69
2021/10/06 08:18:23;;;;;;;;;;;18.00;86.20;;;;;;5073507;28;19919;-70
2021/10/06 08:20:50;;;;;;;;;;;18.00;87.10;;;;;;5072978;28;19909;-69
2021/10/06 08:23:17;;;;;;;;;;;17.90;88.20;;;;;;5088924;28;19927;-70
2021/10/06 08:25:44;;;;;;;;;;;17.90;89.70;;;;;;5093940;28;19943;-69
2021/10/06 08:28:11;;;;;;;;;;;17.90;90.00;;;;;;5093384;28;19908;-69
2021/10/06 08:30:38;;;;;;;;;;;17.80;90.20;;;;;;5093657;28;20362;-67
2021/10/06 08:33:05;;;;;;;;;;;17.80;90.40;;;;;;5093412;28;19961;-67
2021/10/06 08:35:32;;;;;;;;;;;17.80;90.60;;;;;;5089107;28;20107;-67
2021/10/06 08:37:59;;;;;;;;;;;17.80;90.80;;;;;;5073197;28;19948;-68
2021/10/06 08:40:25;;;;;;;;;;;17.70;90.80;;;;;;5072893;28;19962;-69
2021/10/06 08:42:52;;;;;;;;;;;17.70;91.10;;;;;;5073353;28;19923;-68
2021/10/06 08:45:19;;;;;;;;;;;17.70;91.10;;;;;;5072445;28;19919;-67
2021/10/06 08:47:45;;;;;;;;;;;17.70;91.40;;;;;;5072529;28;20264;-70
2021/10/06 08:50:13;;;;;;;;;;;17.70;91.40;;;;;;5071597;28;19916;-70
2021/10/06 08:52:40;;;;;;;;;;;17.70;91.50;;;;;;5072809;28;19909;-70
2021/10/06 08:55:10;;;;;;;;;;;17.60;91.70;;;;;;5072605;28;19916;-68
2021/10/06 08:57:37;;;;;;;;;;;17.60;91.90;;;;;;5072081;28;20004;-68
2021/10/06 09:00:04;;;;;;;;;;;17.60;91.90;;;;;;5071738;28;19924;-68
2021/10/06 09:02:40;;;;;;;;;;;17.60;91.90;;;;;;5072472;28;19912;-71
2021/10/06 09:05:08;;;;;;;;;;;17.60;92.00;;;;;;5072472;28;19908;-69
2021/10/06 09:07:53;;;;;;;;;;;17.50;92.10;;;;;;5072186;28;19970;-67
2021/10/06 09:10:20;;;;;;;;;;;17.60;92.10;;;;;;5072377;28;20275;-68
2021/10/06 09:12:54;;;;;;;;;;;17.50;92.20;;;;;;5072388;28;19974;-71
2021/10/06 09:15:21;;;;;;;;;;;17.50;92.50;;;;;;5071667;28;19936;-68
2021/10/06 09:17:55;;;;;;;;;;;17.50;92.40;;;;;;5072026;28;19918;-70
2021/10/06 09:20:21;;;;;;;;;;;17.50;92.60;;;;;;5071171;28;19915;-69
2021/10/06 09:23:04;;;;;;;;;;;17.50;92.70;;;;;;5072136;28;19971;-69
2021/10/06 09:25:36;;;;;;;;;;;17.50;92.80;;;;;;5071790;28;19959;-70
2021/10/06 09:28:06;;;;;;;;;;;17.50;93.20;;;;;;5072120;28;19912;-71
2021/10/06 09:30:33;;;;;;;;;;;17.40;93.40;;;;;;5072311;28;20086;-67
2021/10/06 09:33:01;;;;;;;;;;;17.40;93.20;;;;;;5104517;28;19916;-68
2021/10/06 09:35:27;;;;;;;;;;;17.50;93.40;;;;;;5071977;28;19908;-68
2021/10/06 09:37:56;;;;;;;;;;;17.50;93.50;;;;;;5071957;28;19908;-69
2021/10/06 09:40:25;;;;;;;;;;;17.40;93.40;;;;;;5072008;28;19912;-71
2021/10/06 09:42:57;;;;;;;;;;;17.40;93.50;;;;;;5072264;28;19920;-69
2021/10/06 09:45:27;;;;;;;;;;;17.40;93.70;;;;;;5071980;28;20003;-68
2021/10/06 09:48:13;;;;;;;;;;;17.40;94.00;;;;;;5071651;28;19958;-68
2021/10/06 09:50:46;;;;;;;;;;;17.40;94.00;;;;;;5070289;28;20003;-69
2021/10/06 09:53:14;;;;;;;;;;;17.40;94.20;;;;;;5071850;28;19921;-69
2021/10/06 09:55:42;;;;;;;;;;;17.30;94.40;;;;;;5071591;28;19912;-69
2021/10/06 09:58:09;;;;;;;;;;;17.30;94.60;;;;;;5071595;28;20351;-68
2021/10/06 10:00:37;;;;;;;;;;;17.30;94.70;;;;;;5073418;28;19909;-68
2021/10/06 10:03:04;;;;;;;;;;;17.30;94.80;;;;;;5075930;28;19969;-68
2021/10/06 10:05:33;;;;;;;;;;;17.20;94.80;;;;;;5075590;28;20368;-68
2021/10/06 10:08:02;;;;;;;;;;;17.20;95.10;;;;;;5076193;28;19909;-69
2021/10/06 10:10:29;;;;;;;;;;;17.20;95.10;;;;;;5077979;28;20278;-68
2021/10/06 10:12:56;;;;;;;;;;;17.20;95.10;;;;;;5076707;28;19909;-71
2021/10/06 10:15:23;;;;;;;;;;;17.20;95.20;;;;;;5075535;28;19912;-71
2021/10/06 10:17:54;;;;;;;;;;;17.20;94.90;;;;;;5076203;28;19920;-70
2021/10/06 10:20:21;;;;;;;;;;;17.20;95.10;;;;;;5075690;28;19912;-71
2021/10/06 10:22:55;;;;;;;;;;;17.20;95.40;;;;;;5076625;28;19921;-71
2021/10/06 10:25:25;;;;;;;;;;;17.30;95.20;;;;;;5076825;28;19915;-70
2021/10/06 10:28:11;;;;;;;;;;;17.20;95.30;;;;;;5077177;28;19984;-71
2021/10/06 10:30:39;;;;;;;;;;;17.20;95.40;;;;;;5078201;28;20330;-71
2021/10/06 10:33:06;;;;;;;;;;;17.20;96.10;;;;;;5080675;28;20279;-71
2021/10/06 10:35:45;;;;;;;;;;;17.20;96.10;;;;;;5082164;28;20461;-70
2021/10/06 10:38:13;;;;;;;;;;;17.10;96.30;;;;;;5077563;28;19913;-69
2021/10/06 10:40:44;;;;;;;;;;;17.10;96.60;;;;;;5073332;28;19909;-68
2021/10/06 10:43:12;;;;;;;;;;;17.10;96.90;;;;;;5072325;28;19912;-69
2021/10/06 10:45:48;;;;;;;;;;;17.10;97.10;;;;;;5072653;28;19916;-68
2021/10/06 10:48:14;;;;;;;;;;;17.10;97.50;;;;;;5072774;28;20101;-67
2021/10/06 10:50:44;;;;;;;;;;;17.10;97.80;;;;;;5072403;28;19909;-68
2021/10/06 10:53:13;;;;;;;;;;;17.10;98.00;;;;;;5072276;28;19908;-67
2021/10/06 10:55:54;;;;;;;;;;;17.00;98.30;;;;;;5072185;28;19936;-68
2021/10/06 10:58:30;;;;;;;;;;;17.10;98.60;;;;;;5072281;28;19919;-71
2021/10/06 11:00:57;;;;;;;;;;;17.10;98.40;;;;;;5073014;28;19912;-70
2021/10/06 11:03:24;;;;;;;;;;;17.00;98.40;;;;;;5072280;28;19965;-69
2021/10/06 11:05:56;;;;;;;;;;;17.00;98.30;;;;;;5072124;28;20351;-70
2021/10/06 11:08:30;;;;;;;;;;;17.00;98.20;;;;;;5071135;28;20011;-72
2021/10/06 11:11:20;;;;;;;;;;;17.00;98.30;;;;;;5071917;28;19920;-71
2021/10/06 11:13:48;;;;;;;;;;;17.00;98.20;;;;;;5067917;28;19915;-71
2021/10/06 11:16:15;;;;;;;;;;;17.00;98.30;;;;;;5072113;28;20391;-71
2021/10/06 11:18:53;;;;;;;;;;;16.90;98.50;;;;;;5070780;28;19986;-69
2021/10/06 11:21:32;;;;;;;;;;;17.00;98.80;;;;;;5070207;28;19908;-71
2021/10/06 11:23:59;;;;;;;;;;;16.90;99.20;;;;;;5072110;28;19921;-70
2021/10/06 11:26:27;;;;;;;;;;;16.90;99.70;;;;;;5071661;28;19999;-69
2021/10/06 11:28:55;;;;;;;;;;;16.90;99.50;;;;;;5071196;28;19943;-70
2021/10/06 11:31:28;;;;;;;;;;;16.90;99.90;;;;;;5071809;28;19912;-69
2021/10/06 11:33:56;;;;;;;;;;;16.90;99.90;;;;;;5072106;28;20420;-69
2021/10/06 11:36:22;;;;;;;;;;;16.90;99.90;;;;;;5072000;28;19912;-67
2021/10/06 11:38:51;;;;;;;;;;;16.90;99.90;;;;;;5071315;28;20007;-70
2021/10/06 11:41:18;;;;;;;;;;;16.90;99.90;;;;;;5071627;28;20106;-70
2021/10/06 11:43:49;;;;;;;;;;;16.90;99.90;;;;;;5071252;28;20497;-71
2021/10/06 11:46:23;;;;;;;;;;;16.90;99.90;;;;;;5071903;28;19938;-69
2021/10/06 11:48:51;;;;;;;;;;;16.90;99.90;;;;;;5071863;28;20420;-68
2021/10/06 11:51:18;;;;;;;;;;;16.90;99.90;;;;;;5071651;28;19934;-70
2021/10/06 11:53:49;;;;;;;;;;;16.80;99.90;;;;;;5071648;28;19908;-69
2021/10/06 11:56:29;;;;;;;;;;;16.80;99.90;;;;;;5071935;28;19970;-69
2021/10/06 11:59:05;;;;;;;;;;;16.80;99.90;;;;;;5070944;28;20330;-68
2021/10/06 12:01:31;;;;;;;;;;;16.80;99.90;;;;;;5071547;28;19933;-69
2021/10/06 12:04:06;;;;;;;;;;;16.70;99.90;;;;;;5071252;28;19969;-68
2021/10/06 12:06:33;;;;;;;;;;;16.70;99.90;;;;;;5070763;28;19916;-68
2021/10/06 12:09:07;;;;;;;;;;;16.60;99.90;;;;;;5071413;28;19915;-71
2021/10/06 12:11:33;;;;;;;;;;;16.70;99.90;;;;;;5071449;28;19913;-72
2021/10/06 12:14:15;;;;;;;;;;;16.60;99.90;;;;;;5070758;28;19909;-71
2021/10/06 12:16:42;;;;;;;;;;;16.60;99.90;;;;;;5071336;28;19966;-70
2021/10/06 12:19:08;;;;;;;;;;;16.60;99.90;;;;;;5071016;28;19957;-71
2021/10/06 12:21:35;;;;;;;;;;;16.50;99.90;;;;;;5070908;28;19908;-69
2021/10/06 12:24:14;;;;;;;;;;;16.60;99.90;;;;;;5070227;28;19916;-70
2021/10/06 12:26:40;;;;;;;;;;;16.50;99.90;;;;;;5070904;28;19944;-71
2021/10/06 12:29:07;;;;;;;;;;;16.60;99.90;;;;;;5071220;28;19912;-71
2021/10/06 12:31:34;;;;;;;;;;;16.50;99.90;;;;;;5070373;28;19912;-70
2021/10/06 12:34:09;;;;;;;;;;;16.50;99.90;;;;;;5071085;28;20271;-71
2021/10/06 12:36:36;;;;;;;;;;;16.50;99.90;;;;;;5071132;28;19962;-71
2021/10/06 12:39:13;;;;;;;;;;;16.50;99.90;;;;;;5071152;28;19912;-71
2021/10/06 12:41:42;;;;;;;;;;;16.50;99.90;;;;;;5070915;28;20004;-68
2021/10/06 12:44:15;;;;;;;;;;;16.40;99.90;;;;;;5070712;28;20312;-69
2021/10/06 12:46:42;;;;;;;;;;;16.40;99.90;;;;;;5070757;28;19972;-69
2021/10/06 12:49:12;;;;;;;;;;;16.40;99.90;;;;;;5070988;28;20386;-69
2021/10/06 12:51:40;;;;;;;;;;;16.30;99.90;;;;;;5070516;28;19912;-71
2021/10/06 12:54:17;;;;;;;;;;;16.30;99.90;;;;;;5070799;28;20028;-70
2021/10/06 12:56:54;;;;;;;;;;;16.20;99.90;;;;;;5070289;28;19923;-71
2021/10/06 12:59:40;;;;;;;;;;;16.20;99.90;;;;;;5070762;28;19999;-69
2021/10/06 13:02:08;;;;;;;;;;;16.20;99.90;;;;;;5070533;28;19995;-68
2021/10/06 13:04:36;;;;;;;;;;;16.10;99.90;;;;;;5070729;28;19920;-71
2021/10/06 13:07:03;;;;;;;;;;;16.10;99.90;;;;;;5070489;28;19909;-69
2021/10/06 13:09:30;;;;;;;;;;;16.00;99.90;;;;;;5070583;28;20364;-68
2021/10/06 13:11:57;;;;;;;;;;;16.00;99.90;;;;;;5070368;28;19909;-68
2021/10/06 13:14:24;;;;;;;;;;;16.00;99.90;;;;;;5070541;28;19931;-69
2021/10/06 13:16:52;;;;;;;;;;;16.00;99.90;;;;;;5070451;28;19943;-70
2021/10/06 13:19:19;;;;;;;;;;;16.00;99.90;;;;;;5071716;28;19915;-70
2021/10/06 13:21:47;;;;;;;;;;;15.90;99.90;;;;;;5068769;28;19920;-71
2021/10/06 13:24:14;;;;;;;;;;;15.90;99.90;;;;;;5069949;28;19948;-70
2021/10/06 13:26:46;;;;;;;;;;;15.90;99.90;;;;;;5070382;28;19912;-71
2021/10/06 13:29:14;;;;;;;;;;;15.90;99.90;;;;;;5070322;28;20359;-71
2021/10/06 13:31:40;;;;;;;;;;;15.80;99.90;;;;;;5069918;28;19995;-68
2021/10/06 13:34:07;;;;;;;;;;;15.80;99.90;;;;;;5070063;28;19908;-71
2021/10/06 13:36:34;;;;;;;;;;;15.80;99.90;;;;;;5069817;28;19951;-69
2021/10/06 13:39:01;;;;;;;;;;;15.80;99.90;;;;;;5070163;28;19908;-69
2021/10/06 13:41:27;;;;;;;;;;;15.80;99.90;;;;;;5070459;28;19908;-71
2021/10/06 13:43:54;;;;;;;;;;;15.70;99.90;;;;;;5069861;28;19927;-70
2021/10/06 13:46:21;;;;;;;;;;;15.70;99.90;;;;;;5068608;28;19928;-70
2021/10/06 13:48:48;;;;;;;;;;;15.70;99.90;;;;;;5069873;28;20013;-69
2021/10/06 13:51:16;;;;;;;;;;;15.70;99.90;;;;;;5069998;28;20421;-70
2021/10/06 13:53:43;;;;;;;;;;;15.60;99.90;;;;;;5069872;28;20291;-69
2021/10/06 13:56:10;;;;;;;;;;;15.60;99.90;;;;;;5070019;28;19909;-69
2021/10/06 13:58:37;;;;;;;;;;;15.50;99.90;;;;;;5070163;28;19999;-71
2021/10/06 14:01:05;;;;;;;;;;;15.50;99.90;;;;;;5069794;28;19913;-69
2021/10/06 14:03:32;;;;;;;;;;;15.50;99.90;;;;;;5069466;28;19942;-70
2021/10/06 14:05:58;;;;;;;;;;;15.50;99.90;;;;;;5069908;28;19913;-72
2021/10/06 14:08:25;;;;;;;;;;;15.40;99.90;;;;;;5069901;28;19919;-71
2021/10/06 14:10:52;;;;;;;;;;;15.30;99.90;;;;;;5070004;28;19916;-71
2021/10/06 14:13:19;;;;;;;;;;;15.30;99.90;;;;;;5070037;28;20236;-71
2021/10/06 14:15:47;;;;;;;;;;;15.30;99.90;;;;;;5069161;28;19912;-70
2021/10/06 14:18:14;;;;;;;;;;;15.30;99.90;;;;;;5069861;28;19912;-72
2021/10/06 14:20:42;;;;;;;;;;;15.30;99.90;;;;;;5069852;28;20015;-72